KTVC/TVC METAR and TAF weather

Enter ICAO airport designator
Station Type Date Time Source
KTVC METAR 2022/06/28 14:53 UTC NOAA

KTVC 281453Z 23015G24KT 10SM FEW055 FEW250 24/11 A3012 RMK AO2 SLP198 T02440106 58007


Station Type Date Time Source
KTVC Decoded METAR 2022/06/28 14:53 UTC NOAA

CHERRY CAPITAL AIRPORT, MI, United States (KTVC) 44-44N 085-34W 190M
Jun 28, 2022 - 10:53 AM EDT / 2022.06.28 1453 UTC
Wind: from the SW (230 degrees) at 17 MPH (15 KT) gusting to 28 MPH (24 KT):0
Visibility: 10 mile(s):0
Sky conditions: mostly clear
Temperature: 75.9 F (24.4 C)
Dew Point: 51.1 F (10.6 C)
Relative Humidity: 41%
Pressure (altimeter): 30.12 in. Hg (1019 hPa)
Pressure tendency: 0.02 inches (0.7 hPa) lower than three hours ago
ob: KTVC 281453Z 23015G24KT 10SM FEW055 FEW250 24/11 A3012 RMK AO2 SLP198 T02440106 58007
cycle: 15

Station Type Date Time Source
KTVC TAF 2022/06/28 12:22 UTC NOAA

TAF KTVC 281120Z 2812/2912 21004KT P6SM FEW250
FM281300 23012G20KT P6SM SKC
FM282100 24013KT P6SM VCTS BKN080CB
FM290000 23012G20KT 6SM SHRA BR VCTS BKN060CB
FM290600 VRB03KT P6SM BKN022
FM291100 VRB03KT P6SM BKN250

Example: see airport list